UAL153 VHHH-KLAX
Flight info
| Callsign | UAL153 |
|---|---|
| Flight time | N/A |
| Altitude | 39000 |
| Route | DALOL V631 ENVAR M750 MUKEP Y891 OVSUN IGMIS Y57 POROT Y809 IDLAN ADNAP OTR7 EMRON 38N160E 38N180E 39N170W 40N160W 40N150W 39N140W 38N130W ALLBE BSR BURGL IRNMN2 |
| Aircraft | B789/H-VGDW/C |
Departure
| Time | N/A |
|---|---|
| Airport | Hong Kong International Airport (VHHH) |
Arrival
| Time | 2026-05-04 18:09 |
|---|---|
| Airport | Los Angeles International Airport (KLAX) |
| Time | Latitude | Longitude | Altitude | Speed | Heading |
|---|---|---|---|---|---|
| 2026-05-04 15:28 | 39.45081 | -143.49705 | 39118 ft | 516 kts | 101° |
| 2026-05-04 15:29 | 39.43511 | -143.35894 | 39128 ft | 517 kts | 101° |
| 2026-05-04 15:30 | 39.39794 | -143.03824 | 39117 ft | 515 kts | 101° |
| 2026-05-04 15:31 | 39.38173 | -142.90083 | 39130 ft | 514 kts | 102° |
| 2026-05-04 15:32 | 39.35445 | -142.67286 | 39130 ft | 514 kts | 101° |
| 2026-05-04 15:34 | 39.32678 | -142.44481 | 39128 ft | 513 kts | 102° |
| 2026-05-04 15:34 | 39.30998 | -142.30856 | 39116 ft | 512 kts | 102° |
| 2026-05-04 15:35 | 39.29310 | -142.17297 | 39129 ft | 512 kts | 102° |
| 2026-05-04 15:36 | 39.27591 | -142.03619 | 39117 ft | 512 kts | 102° |
| 2026-05-04 15:36 | 39.26450 | -141.94626 | 39129 ft | 511 kts | 102° |
| 2026-05-04 15:37 | 39.25295 | -141.85579 | 39118 ft | 512 kts | 102° |
| 2026-05-04 15:37 | 39.24135 | -141.76532 | 39122 ft | 511 kts | 101° |
| 2026-05-04 15:38 | 39.22967 | -141.67477 | 39126 ft | 512 kts | 102° |
| 2026-05-04 15:38 | 39.21790 | -141.58429 | 39115 ft | 511 kts | 101° |
| 2026-05-04 15:39 | 39.20610 | -141.49390 | 39126 ft | 512 kts | 101° |
| 2026-05-04 15:40 | 39.18819 | -141.35807 | 39115 ft | 512 kts | 101° |
| 2026-05-04 15:40 | 39.17617 | -141.26757 | 39125 ft | 512 kts | 101° |
| 2026-05-04 15:41 | 39.16406 | -141.17702 | 39121 ft | 512 kts | 101° |
| 2026-05-04 15:41 | 39.15197 | -141.08704 | 39115 ft | 512 kts | 101° |
| 2026-05-04 15:42 | 39.13974 | -140.99661 | 39128 ft | 512 kts | 101° |
| 2026-05-04 15:42 | 39.12741 | -140.90610 | 39116 ft | 512 kts | 101° |
| 2026-05-04 15:43 | 39.11506 | -140.81584 | 39111 ft | 513 kts | 101° |
| 2026-05-04 15:43 | 39.10268 | -140.72600 | 39086 ft | 512 kts | 101° |
| 2026-05-04 15:44 | 39.09015 | -140.63555 | 39073 ft | 513 kts | 101° |
| 2026-05-04 15:44 | 39.07758 | -140.54529 | 39082 ft | 512 kts | 101° |
| 2026-05-04 15:45 | 39.06492 | -140.45483 | 39079 ft | 512 kts | 101° |
| 2026-05-04 15:45 | 39.05225 | -140.36514 | 39072 ft | 513 kts | 101° |
| 2026-05-04 15:46 | 39.03942 | -140.27480 | 39084 ft | 513 kts | 101° |
| 2026-05-04 15:46 | 39.02655 | -140.18452 | 39080 ft | 513 kts | 101° |
| 2026-05-04 15:47 | 39.01363 | -140.09448 | 39079 ft | 512 kts | 101° |
| 2026-05-04 15:47 | 39.00292 | -140.00399 | 39089 ft | 512 kts | 97° |
| 2026-05-04 15:48 | 38.99562 | -139.91264 | 39074 ft | 513 kts | 94° |
| 2026-05-04 15:48 | 38.98721 | -139.77619 | 39087 ft | 512 kts | 93° |
| 2026-05-04 15:49 | 38.98190 | -139.68490 | 39077 ft | 512 kts | 93° |
| 2026-05-04 15:49 | 38.97646 | -139.59345 | 39090 ft | 513 kts | 93° |
| 2026-05-04 15:50 | 38.97090 | -139.50210 | 39104 ft | 512 kts | 93° |
| 2026-05-04 15:50 | 38.96533 | -139.41092 | 39095 ft | 512 kts | 93° |
| 2026-05-04 15:51 | 38.95974 | -139.32014 | 39096 ft | 512 kts | 93° |
| 2026-05-04 15:51 | 38.95402 | -139.22867 | 39103 ft | 513 kts | 93° |
| 2026-05-04 15:52 | 38.94821 | -139.13746 | 39091 ft | 512 kts | 93° |
| 2026-05-04 15:52 | 38.94235 | -139.04617 | 39101 ft | 512 kts | 93° |
| 2026-05-04 15:53 | 38.93642 | -138.95491 | 39097 ft | 512 kts | 93° |
| 2026-05-04 15:53 | 38.93044 | -138.86376 | 39090 ft | 512 kts | 93° |
| 2026-05-04 15:54 | 38.92441 | -138.77320 | 39102 ft | 512 kts | 93° |
| 2026-05-04 15:54 | 38.91826 | -138.68191 | 39093 ft | 513 kts | 92° |
| 2026-05-04 15:55 | 38.91206 | -138.59079 | 39093 ft | 512 kts | 92° |
| 2026-05-04 15:55 | 38.90577 | -138.49956 | 39101 ft | 512 kts | 92° |
| 2026-05-04 15:56 | 38.89940 | -138.40829 | 39089 ft | 512 kts | 92° |
| 2026-05-04 15:56 | 38.89298 | -138.31710 | 39097 ft | 513 kts | 92° |
| 2026-05-04 15:57 | 38.88650 | -138.22598 | 39096 ft | 513 kts | 92° |
| 2026-05-04 15:57 | 38.87995 | -138.13528 | 39088 ft | 513 kts | 92° |
| 2026-05-04 15:58 | 38.87329 | -138.04407 | 39100 ft | 513 kts | 92° |
| 2026-05-04 15:58 | 38.86658 | -137.95300 | 39089 ft | 511 kts | 92° |
| 2026-05-04 15:59 | 38.85982 | -137.86227 | 39092 ft | 511 kts | 92° |
| 2026-05-04 15:59 | 38.85302 | -137.77139 | 39098 ft | 511 kts | 92° |
| 2026-05-04 16:00 | 38.84611 | -137.68054 | 39086 ft | 511 kts | 92° |
| 2026-05-04 16:00 | 38.83914 | -137.58984 | 39097 ft | 511 kts | 92° |
| 2026-05-04 16:01 | 38.83214 | -137.49974 | 39092 ft | 511 kts | 91° |
| 2026-05-04 16:01 | 38.82504 | -137.40909 | 39086 ft | 510 kts | 91° |
| 2026-05-04 16:02 | 38.81787 | -137.31851 | 39098 ft | 510 kts | 91° |
| 2026-05-04 16:03 | 38.80700 | -137.18278 | 39083 ft | 509 kts | 91° |
| 2026-05-04 16:03 | 38.79967 | -137.09248 | 39096 ft | 509 kts | 91° |
| 2026-05-04 16:04 | 38.79233 | -137.00282 | 39088 ft | 509 kts | 91° |
| 2026-05-04 16:04 | 38.78112 | -136.86751 | 39094 ft | 509 kts | 91° |
| 2026-05-04 16:05 | 38.77354 | -136.77727 | 39089 ft | 508 kts | 91° |
| 2026-05-04 16:06 | 38.76337 | -136.65740 | 39088 ft | 509 kts | 91° |
| 2026-05-04 16:07 | 38.74785 | -136.47710 | 39082 ft | 509 kts | 91° |
| 2026-05-04 16:08 | 38.73203 | -136.29673 | 39089 ft | 509 kts | 91° |
| 2026-05-04 16:09 | 38.71187 | -136.07125 | 39091 ft | 511 kts | 91° |
| 2026-05-04 16:10 | 38.69547 | -135.89159 | 39094 ft | 508 kts | 91° |
| 2026-05-04 16:11 | 38.67877 | -135.71164 | 39085 ft | 509 kts | 91° |
| 2026-05-04 16:12 | 38.65321 | -135.44206 | 39090 ft | 508 kts | 91° |
| 2026-05-04 16:13 | 38.63595 | -135.26365 | 39087 ft | 506 kts | 91° |
| 2026-05-04 16:14 | 38.61840 | -135.08491 | 39096 ft | 506 kts | 92° |
| 2026-05-04 16:16 | 38.59606 | -134.86179 | 39095 ft | 505 kts | 92° |
| 2026-05-04 16:17 | 38.57337 | -134.63925 | 39094 ft | 506 kts | 92° |
| 2026-05-04 16:18 | 38.55483 | -134.46070 | 39087 ft | 507 kts | 93° |
| 2026-05-04 16:19 | 38.53127 | -134.23757 | 39084 ft | 508 kts | 93° |
| 2026-05-04 16:20 | 38.50726 | -134.01399 | 39081 ft | 509 kts | 93° |
| 2026-05-04 16:22 | 38.48276 | -133.79042 | 39084 ft | 508 kts | 94° |
| 2026-05-04 16:23 | 38.45285 | -133.52264 | 39085 ft | 507 kts | 94° |
| 2026-05-04 16:25 | 38.42245 | -133.25611 | 39090 ft | 507 kts | 94° |
| 2026-05-04 16:26 | 38.38623 | -132.94565 | 39077 ft | 506 kts | 94° |
| 2026-05-04 16:28 | 38.35983 | -132.72368 | 39078 ft | 508 kts | 94° |
| 2026-05-04 16:29 | 38.32206 | -132.41204 | 39082 ft | 510 kts | 95° |
| 2026-05-04 16:31 | 38.29450 | -132.18922 | 39078 ft | 511 kts | 95° |
| 2026-05-04 16:32 | 38.26070 | -131.92090 | 39083 ft | 511 kts | 95° |
| 2026-05-04 16:33 | 38.23782 | -131.74213 | 39078 ft | 511 kts | 95° |
| 2026-05-04 16:34 | 38.22054 | -131.60842 | 39089 ft | 510 kts | 95° |
| 2026-05-04 16:35 | 38.18569 | -131.34260 | 39083 ft | 507 kts | 95° |
| 2026-05-04 16:36 | 38.16810 | -131.21023 | 39088 ft | 505 kts | 96° |
| 2026-05-04 16:37 | 38.15042 | -131.07843 | 39079 ft | 504 kts | 96° |
| 2026-05-04 16:38 | 38.12678 | -130.90384 | 39087 ft | 502 kts | 96° |
| 2026-05-04 16:39 | 38.09685 | -130.68552 | 39088 ft | 501 kts | 96° |
| 2026-05-04 16:40 | 38.07266 | -130.51149 | 39088 ft | 501 kts | 97° |
| 2026-05-04 16:41 | 38.04202 | -130.29380 | 39085 ft | 501 kts | 97° |
| 2026-05-04 16:43 | 38.01101 | -130.07655 | 39083 ft | 501 kts | 97° |
| 2026-05-04 16:43 | 37.99175 | -129.94606 | 39078 ft | 502 kts | 97° |
| 2026-05-04 16:45 | 37.95219 | -129.68597 | 39075 ft | 503 kts | 98° |
| 2026-05-04 16:46 | 37.91854 | -129.46841 | 39075 ft | 503 kts | 98° |
| 2026-05-04 16:47 | 37.89136 | -129.29443 | 39085 ft | 504 kts | 98° |
| 2026-05-04 16:48 | 37.86614 | -129.13493 | 39085 ft | 504 kts | 98° |
| 2026-05-04 16:49 | 37.83609 | -128.94671 | 39078 ft | 504 kts | 99° |
| 2026-05-04 16:50 | 37.81041 | -128.78734 | 39074 ft | 503 kts | 99° |
| 2026-05-04 16:51 | 37.78927 | -128.65730 | 39086 ft | 503 kts | 99° |
| 2026-05-04 16:52 | 37.76097 | -128.48446 | 39078 ft | 501 kts | 99° |
| 2026-05-04 16:53 | 37.73961 | -128.35506 | 39077 ft | 501 kts | 99° |
| 2026-05-04 16:54 | 37.71094 | -128.18312 | 39085 ft | 499 kts | 99° |
| 2026-05-04 16:55 | 37.66761 | -127.92623 | 39078 ft | 500 kts | 100° |
| 2026-05-04 16:56 | 37.63092 | -127.71148 | 39078 ft | 502 kts | 100° |
| 2026-05-04 16:57 | 37.60866 | -127.58228 | 39061 ft | 503 kts | 100° |
| 2026-05-04 16:58 | 37.57863 | -127.40930 | 39067 ft | 506 kts | 101° |
| 2026-05-04 17:00 | 37.53294 | -127.14945 | 39062 ft | 508 kts | 101° |
| 2026-05-04 17:01 | 37.49095 | -126.93247 | 39063 ft | 511 kts | 104° |
| 2026-05-04 17:02 | 37.45319 | -126.76040 | 39073 ft | 512 kts | 104° |
| 2026-05-04 17:03 | 37.42421 | -126.63087 | 39061 ft | 512 kts | 104° |
| 2026-05-04 17:03 | 37.39523 | -126.50215 | 39077 ft | 512 kts | 104° |
| 2026-05-04 17:04 | 37.35629 | -126.33026 | 39070 ft | 512 kts | 105° |
| 2026-05-04 17:05 | 37.31700 | -126.15806 | 39065 ft | 512 kts | 105° |
| 2026-05-04 17:06 | 37.28736 | -126.02888 | 39078 ft | 513 kts | 105° |
| 2026-05-04 17:07 | 37.26086 | -125.91403 | 39065 ft | 516 kts | 105° |
| 2026-05-04 17:07 | 37.23738 | -125.81287 | 39078 ft | 516 kts | 106° |
| 2026-05-04 17:08 | 37.20717 | -125.68332 | 39064 ft | 517 kts | 106° |
| 2026-05-04 17:09 | 37.18684 | -125.59646 | 39076 ft | 519 kts | 106° |
| 2026-05-04 17:09 | 37.16647 | -125.50968 | 39073 ft | 519 kts | 106° |
| 2026-05-04 17:10 | 37.11518 | -125.29287 | 39075 ft | 520 kts | 107° |
| 2026-05-04 17:11 | 37.09447 | -125.20585 | 39067 ft | 521 kts | 107° |
| 2026-05-04 17:12 | 37.06317 | -125.07499 | 39077 ft | 523 kts | 107° |
| 2026-05-04 17:13 | 37.01080 | -124.85745 | 39070 ft | 524 kts | 108° |
| 2026-05-04 17:14 | 36.96836 | -124.68260 | 39077 ft | 525 kts | 108° |
| 2026-05-04 17:15 | 36.93635 | -124.55149 | 39063 ft | 526 kts | 108° |
| 2026-05-04 17:16 | 36.89337 | -124.37667 | 39068 ft | 528 kts | 108° |
| 2026-05-04 17:17 | 36.84996 | -124.20124 | 39078 ft | 529 kts | 109° |
| 2026-05-04 17:18 | 36.80609 | -124.02532 | 39073 ft | 531 kts | 109° |
| 2026-05-04 17:19 | 36.76187 | -123.84914 | 39066 ft | 534 kts | 110° |
| 2026-05-04 17:20 | 36.71712 | -123.67220 | 39069 ft | 535 kts | 110° |
| 2026-05-04 17:20 | 36.68342 | -123.53964 | 39077 ft | 535 kts | 110° |
| 2026-05-04 17:21 | 36.63831 | -123.36337 | 39068 ft | 535 kts | 111° |
| 2026-05-04 17:22 | 36.61562 | -123.27518 | 39078 ft | 535 kts | 111° |
| 2026-05-04 17:23 | 36.57004 | -123.09887 | 39073 ft | 535 kts | 111° |
| 2026-05-04 17:24 | 36.53557 | -122.96641 | 39076 ft | 536 kts | 111° |
| 2026-05-04 17:25 | 36.48942 | -122.79001 | 39081 ft | 537 kts | 112° |
| 2026-05-04 17:26 | 36.44284 | -122.61328 | 39075 ft | 539 kts | 113° |
| 2026-05-04 17:27 | 36.38407 | -122.39196 | 39072 ft | 541 kts | 114° |
| 2026-05-04 17:28 | 36.33658 | -122.21439 | 39066 ft | 541 kts | 114° |
| 2026-05-04 17:29 | 36.26477 | -121.94828 | 39066 ft | 543 kts | 115° |
| 2026-05-04 17:31 | 36.20459 | -121.72725 | 39073 ft | 542 kts | 115° |
| 2026-05-04 17:32 | 36.13781 | -121.50994 | 39085 ft | 540 kts | 118° |
| 2026-05-04 17:33 | 36.08591 | -121.35214 | 39078 ft | 538 kts | 118° |
| 2026-05-04 17:34 | 36.02909 | -121.18075 | 39088 ft | 538 kts | 118° |
| 2026-05-04 17:35 | 35.95762 | -120.96656 | 39098 ft | 545 kts | 119° |
| 2026-05-04 17:36 | 35.92841 | -120.87943 | 39098 ft | 546 kts | 119° |
| 2026-05-04 17:36 | 35.89938 | -120.79299 | 39110 ft | 545 kts | 119° |
| 2026-05-04 17:37 | 35.87020 | -120.70654 | 39100 ft | 546 kts | 119° |
| 2026-05-04 17:37 | 35.84101 | -120.62025 | 39109 ft | 545 kts | 119° |
| 2026-05-04 17:38 | 35.81196 | -120.53455 | 39110 ft | 545 kts | 119° |
| 2026-05-04 17:38 | 35.78267 | -120.44846 | 39100 ft | 546 kts | 119° |
| 2026-05-04 17:39 | 35.73842 | -120.31876 | 39109 ft | 545 kts | 119° |
| 2026-05-04 17:39 | 35.70900 | -120.23285 | 39095 ft | 545 kts | 119° |
| 2026-05-04 17:40 | 35.67341 | -120.15224 | 39075 ft | 526 kts | 136° |
| 2026-05-04 17:40 | 35.62147 | -120.09120 | 39112 ft | 508 kts | 148° |
| 2026-05-04 17:41 | 35.59426 | -120.06447 | 39085 ft | 493 kts | 150° |
| 2026-05-04 17:41 | 35.56710 | -120.03973 | 39070 ft | 480 kts | 153° |
| 2026-05-04 17:41 | 35.51189 | -119.99440 | 39086 ft | 479 kts | 156° |
| 2026-05-04 17:42 | 35.45573 | -119.95108 | 39092 ft | 479 kts | 157° |
| 2026-05-04 17:42 | 35.39910 | -119.90795 | 39048 ft | 478 kts | 158° |
| 2026-05-04 17:43 | 35.37068 | -119.88639 | 38559 ft | 480 kts | 158° |
| 2026-05-04 17:43 | 35.34243 | -119.86491 | 38190 ft | 475 kts | 158° |
| 2026-05-04 17:43 | 35.31459 | -119.84371 | 37952 ft | 467 kts | 159° |
| 2026-05-04 17:43 | 35.28773 | -119.82156 | 37845 ft | 464 kts | 155° |
| 2026-05-04 17:44 | 35.26140 | -119.79813 | 37711 ft | 473 kts | 154° |
| 2026-05-04 17:44 | 35.23509 | -119.77408 | 37422 ft | 480 kts | 154° |
| 2026-05-04 17:44 | 35.20834 | -119.74922 | 36998 ft | 483 kts | 154° |
| 2026-05-04 17:44 | 35.18173 | -119.72430 | 36502 ft | 481 kts | 154° |
| 2026-05-04 17:45 | 35.15523 | -119.69945 | 35968 ft | 479 kts | 154° |
| 2026-05-04 17:45 | 35.12882 | -119.67473 | 35415 ft | 477 kts | 155° |
| 2026-05-04 17:45 | 35.10251 | -119.65017 | 34852 ft | 475 kts | 155° |
| 2026-05-04 17:45 | 35.07630 | -119.62576 | 34284 ft | 473 kts | 155° |
| 2026-05-04 17:46 | 35.05010 | -119.60140 | 33711 ft | 472 kts | 155° |
| 2026-05-04 17:46 | 35.02396 | -119.57714 | 33141 ft | 472 kts | 155° |
| 2026-05-04 17:46 | 34.99772 | -119.55283 | 32564 ft | 474 kts | 155° |
| 2026-05-04 17:46 | 34.97145 | -119.52851 | 31983 ft | 476 kts | 155° |
| 2026-05-04 17:47 | 34.94506 | -119.50402 | 31398 ft | 475 kts | 155° |
| 2026-05-04 17:47 | 34.91878 | -119.47989 | 30818 ft | 469 kts | 155° |
| 2026-05-04 17:47 | 34.89280 | -119.45638 | 30256 ft | 462 kts | 156° |
| 2026-05-04 17:47 | 34.86710 | -119.43326 | 29673 ft | 456 kts | 156° |
| 2026-05-04 17:48 | 34.84174 | -119.41052 | 29111 ft | 449 kts | 156° |
| 2026-05-04 17:48 | 34.81702 | -119.38836 | 28560 ft | 444 kts | 156° |
| 2026-05-04 17:48 | 34.79227 | -119.36622 | 28007 ft | 438 kts | 156° |
| 2026-05-04 17:48 | 34.76779 | -119.34444 | 27492 ft | 432 kts | 155° |
| 2026-05-04 17:49 | 34.74368 | -119.32312 | 26993 ft | 426 kts | 155° |
| 2026-05-04 17:49 | 34.71972 | -119.30204 | 26379 ft | 424 kts | 155° |
| 2026-05-04 17:49 | 34.69583 | -119.28114 | 25695 ft | 423 kts | 155° |
| 2026-05-04 17:49 | 34.67185 | -119.26025 | 24981 ft | 423 kts | 154° |
| 2026-05-04 17:50 | 34.64786 | -119.23948 | 24234 ft | 424 kts | 154° |
| 2026-05-04 17:50 | 34.62380 | -119.21868 | 23591 ft | 423 kts | 154° |
| 2026-05-04 17:50 | 34.59996 | -119.19803 | 23127 ft | 417 kts | 153° |
| 2026-05-04 17:50 | 34.57663 | -119.17770 | 22824 ft | 408 kts | 153° |
| 2026-05-04 17:51 | 34.55393 | -119.15768 | 22512 ft | 400 kts | 153° |
| 2026-05-04 17:51 | 34.53162 | -119.13800 | 22120 ft | 394 kts | 153° |
| 2026-05-04 17:51 | 34.50953 | -119.11853 | 21675 ft | 391 kts | 153° |
| 2026-05-04 17:51 | 34.48760 | -119.09920 | 21198 ft | 389 kts | 153° |
| 2026-05-04 17:52 | 34.46604 | -119.08019 | 20696 ft | 387 kts | 152° |
| 2026-05-04 17:52 | 34.44424 | -119.06108 | 20186 ft | 386 kts | 152° |
| 2026-05-04 17:52 | 34.42239 | -119.04208 | 19625 ft | 386 kts | 152° |
| 2026-05-04 17:52 | 34.40054 | -119.02314 | 19012 ft | 387 kts | 152° |
| 2026-05-04 17:53 | 34.37862 | -119.00417 | 18356 ft | 388 kts | 152° |
| 2026-05-04 17:53 | 34.35657 | -118.98503 | 17668 ft | 390 kts | 151° |
| 2026-05-04 17:53 | 34.33467 | -118.96553 | 16964 ft | 392 kts | 150° |
| 2026-05-04 17:53 | 34.31280 | -118.94581 | 16419 ft | 389 kts | 149° |
| 2026-05-04 17:54 | 34.29135 | -118.92635 | 16033 ft | 382 kts | 149° |
| 2026-05-04 17:54 | 34.27035 | -118.90727 | 15714 ft | 373 kts | 149° |
| 2026-05-04 17:54 | 34.25000 | -118.88864 | 15496 ft | 362 kts | 149° |
| 2026-05-04 17:54 | 34.23015 | -118.87043 | 15142 ft | 356 kts | 148° |
| 2026-05-04 17:55 | 34.21050 | -118.85244 | 14677 ft | 353 kts | 148° |
| 2026-05-04 17:55 | 34.19087 | -118.83446 | 14097 ft | 354 kts | 148° |
| 2026-05-04 17:55 | 34.17128 | -118.81647 | 13421 ft | 352 kts | 147° |
| 2026-05-04 17:55 | 34.16014 | -118.80543 | 13057 ft | 347 kts | 143° |
| 2026-05-04 17:56 | 34.14238 | -118.78642 | 12577 ft | 335 kts | 142° |
| 2026-05-04 17:56 | 34.12548 | -118.76792 | 12205 ft | 320 kts | 142° |
| 2026-05-04 17:56 | 34.10929 | -118.75022 | 11858 ft | 308 kts | 142° |
| 2026-05-04 17:56 | 34.09370 | -118.73320 | 11567 ft | 295 kts | 142° |
| 2026-05-04 17:57 | 34.07868 | -118.71688 | 11346 ft | 289 kts | 142° |
| 2026-05-04 17:57 | 34.06374 | -118.70067 | 11025 ft | 288 kts | 142° |
| 2026-05-04 17:57 | 34.04885 | -118.68454 | 10694 ft | 287 kts | 141° |
| 2026-05-04 17:57 | 34.03496 | -118.66715 | 10320 ft | 292 kts | 128° |
| 2026-05-04 17:58 | 34.02791 | -118.64432 | 10058 ft | 292 kts | 102° |
| 2026-05-04 17:58 | 34.02537 | -118.62058 | 9872 ft | 287 kts | 98° |
| 2026-05-04 17:58 | 34.02319 | -118.59636 | 9580 ft | 286 kts | 97° |
| 2026-05-04 17:58 | 34.02096 | -118.57255 | 9289 ft | 285 kts | 97° |
| 2026-05-04 17:59 | 34.01873 | -118.54888 | 9022 ft | 282 kts | 97° |
| 2026-05-04 17:59 | 34.01664 | -118.52612 | 8822 ft | 262 kts | 97° |
| 2026-05-04 17:59 | 34.01281 | -118.48498 | 8281 ft | 239 kts | 97° |
| 2026-05-04 18:00 | 34.01093 | -118.46504 | 8045 ft | 241 kts | 97° |
| 2026-05-04 18:00 | 34.01123 | -118.44471 | 7815 ft | 246 kts | 81° |
| 2026-05-04 18:00 | 34.01506 | -118.42461 | 7571 ft | 247 kts | 76° |
| 2026-05-04 18:00 | 34.01888 | -118.40450 | 7192 ft | 246 kts | 77° |
| 2026-05-04 18:01 | 34.02250 | -118.38444 | 6806 ft | 243 kts | 78° |
| 2026-05-04 18:01 | 34.02581 | -118.36459 | 6386 ft | 242 kts | 80° |
| 2026-05-04 18:01 | 34.02820 | -118.34464 | 6077 ft | 235 kts | 82° |
| 2026-05-04 18:02 | 34.03235 | -118.30659 | 5737 ft | 225 kts | 83° |
| 2026-05-04 18:02 | 34.03463 | -118.28773 | 5277 ft | 229 kts | 81° |
| 2026-05-04 18:02 | 34.03694 | -118.26890 | 4824 ft | 231 kts | 82° |
| 2026-05-04 18:02 | 34.03927 | -118.24983 | 4405 ft | 230 kts | 82° |
| 2026-05-04 18:03 | 34.04152 | -118.23076 | 3976 ft | 229 kts | 83° |
| 2026-05-04 18:03 | 34.03931 | -118.21194 | 3495 ft | 228 kts | 111° |
| 2026-05-04 18:03 | 34.02986 | -118.19740 | 3211 ft | 216 kts | 142° |
| 2026-05-04 18:03 | 34.01648 | -118.19103 | 3070 ft | 202 kts | 169° |
| 2026-05-04 18:04 | 34.00255 | -118.18828 | 3047 ft | 202 kts | 174° |
| 2026-05-04 18:04 | 33.98881 | -118.19093 | 2975 ft | 202 kts | 204° |
| 2026-05-04 18:04 | 33.96981 | -118.21441 | 3040 ft | 192 kts | 231° |
| 2026-05-04 18:05 | 33.96325 | -118.22812 | 2959 ft | 191 kts | 252° |
| 2026-05-04 18:05 | 33.96363 | -118.24371 | 2983 ft | 183 kts | 280° |
| 2026-05-04 18:05 | 33.96556 | -118.25863 | 2781 ft | 182 kts | 271° |
| 2026-05-04 18:05 | 33.96475 | -118.27379 | 2500 ft | 180 kts | 265° |
| 2026-05-04 18:06 | 33.96224 | -118.30262 | 2013 ft | 162 kts | 263° |
| 2026-05-04 18:06 | 33.96090 | -118.31557 | 1806 ft | 150 kts | 262° |
| 2026-05-04 18:06 | 33.95964 | -118.32814 | 1585 ft | 153 kts | 262° |
| 2026-05-04 18:07 | 33.95835 | -118.34082 | 1369 ft | 152 kts | 262° |
| 2026-05-04 18:07 | 33.95708 | -118.35318 | 1174 ft | 145 kts | 261° |
| 2026-05-04 18:07 | 33.95585 | -118.36529 | 934 ft | 144 kts | 261° |
| 2026-05-04 18:07 | 33.95468 | -118.37701 | 670 ft | 138 kts | 261° |
| 2026-05-04 18:08 | 33.95354 | -118.38838 | 424 ft | 136 kts | 261° |
| 2026-05-04 18:08 | 33.95237 | -118.39972 | 233 ft | 136 kts | 261° |
| 2026-05-04 18:08 | 33.95121 | -118.41058 | 141 ft | 124 kts | 263° |
| 2026-05-04 18:08 | 33.95043 | -118.41832 | 140 ft | 65 kts | 262° |
| 2026-05-04 18:09 | 33.94877 | -118.42656 | 140 ft | 30 kts | 227° |
| 2026-05-04 18:09 | 33.94582 | -118.42778 | 140 ft | 21 kts | 173° |
| 2026-05-04 18:10 | 33.94433 | -118.42758 | 140 ft | 22 kts | 173° |
| 2026-05-04 18:10 | 33.94275 | -118.42737 | 140 ft | 23 kts | 174° |
| 2026-05-04 18:10 | 33.94113 | -118.42713 | 140 ft | 24 kts | 173° |
| 2026-05-04 18:10 | 33.93942 | -118.42688 | 140 ft | 25 kts | 173° |
| 2026-05-04 18:11 | 33.93782 | -118.42665 | 140 ft | 20 kts | 173° |
| 2026-05-04 18:11 | 33.93656 | -118.42647 | 140 ft | 11 kts | 173° |
| 2026-05-04 18:11 | 33.93614 | -118.42593 | 140 ft | 12 kts | 91° |
| 2026-05-04 18:11 | 33.93625 | -118.42462 | 140 ft | 19 kts | 83° |
| 2026-05-04 18:12 | 33.93643 | -118.42273 | 140 ft | 26 kts | 83° |
| 2026-05-04 18:12 | 33.93665 | -118.42060 | 140 ft | 24 kts | 83° |
| 2026-05-04 18:12 | 33.93681 | -118.41900 | 140 ft | 21 kts | 83° |
| 2026-05-04 18:12 | 33.93700 | -118.41714 | 140 ft | 23 kts | 83° |
| 2026-05-04 18:13 | 33.93721 | -118.41513 | 140 ft | 25 kts | 83° |
| 2026-05-04 18:13 | 33.93739 | -118.41338 | 140 ft | 17 kts | 83° |
| 2026-05-04 18:13 | 33.93774 | -118.40998 | 140 ft | 20 kts | 83° |
| 2026-05-04 18:14 | 33.93792 | -118.40821 | 140 ft | 19 kts | 83° |
| 2026-05-04 18:14 | 33.93804 | -118.40705 | 140 ft | 23 kts | 83° |
| 2026-05-04 18:14 | 33.93830 | -118.40441 | 140 ft | 25 kts | 83° |
| 2026-05-04 18:15 | 33.93862 | -118.40138 | 140 ft | 20 kts | 82° |
| 2026-05-04 18:15 | 33.93890 | -118.39867 | 140 ft | 12 kts | 82° |
| 2026-05-04 18:15 | 33.93948 | -118.39821 | 140 ft | 10 kts | 349° |
| 2026-05-04 18:16 | 33.94025 | -118.39836 | 140 ft | 10 kts | 349° |
| 2026-05-04 18:16 | 33.94069 | -118.39859 | 140 ft | 4 kts | 322° |
| 2026-05-04 18:16 | 33.94079 | -118.39871 | 140 ft | 2 kts | 311° |
| 2026-05-04 18:17 | 33.94100 | -118.39905 | 140 ft | 0 kts | 307° |